sensor_id;sensor_type;location;lat;lon;timestamp;P1;durP1;ratioP1;P2;durP2;ratioP2
23718;SDS011;43322;52.230;5.702;2022-12-18T00:02:01;73.82;;;30.08;;
23718;SDS011;43322;52.230;5.702;2022-12-18T00:04:28;66.07;;;29.73;;
23718;SDS011;43322;52.230;5.702;2022-12-18T00:06:57;71.50;;;29.60;;
23718;SDS011;43322;52.230;5.702;2022-12-18T00:09:24;66.35;;;27.88;;
23718;SDS011;43322;52.230;5.702;2022-12-18T00:11:50;67.57;;;28.08;;
23718;SDS011;43322;52.230;5.702;2022-12-18T00:14:17;69.63;;;28.27;;
23718;SDS011;43322;52.230;5.702;2022-12-18T00:16:44;75.28;;;31.33;;
23718;SDS011;43322;52.230;5.702;2022-12-18T00:19:12;65.68;;;28.33;;
23718;SDS011;43322;52.230;5.702;2022-12-18T00:21:39;79.78;;;29.27;;
23718;SDS011;43322;52.230;5.702;2022-12-18T00:24:08;80.10;;;30.33;;
23718;SDS011;43322;52.230;5.702;2022-12-18T00:26:35;67.80;;;28.63;;
23718;SDS011;43322;52.230;5.702;2022-12-18T00:29:03;68.32;;;29.15;;
23718;SDS011;43322;52.230;5.702;2022-12-18T00:31:31;63.80;;;28.02;;
23718;SDS011;43322;52.230;5.702;2022-12-18T00:33:59;72.13;;;30.45;;
23718;SDS011;43322;52.230;5.702;2022-12-18T00:36:26;75.20;;;30.70;;
23718;SDS011;43322;52.230;5.702;2022-12-18T00:38:55;73.47;;;29.70;;
23718;SDS011;43322;52.230;5.702;2022-12-18T00:41:24;69.32;;;30.58;;
23718;SDS011;43322;52.230;5.702;2022-12-18T00:44:10;73.03;;;31.38;;
23718;SDS011;43322;52.230;5.702;2022-12-18T00:46:37;73.22;;;29.80;;
23718;SDS011;43322;52.230;5.702;2022-12-18T00:49:04;70.78;;;30.13;;
23718;SDS011;43322;52.230;5.702;2022-12-18T00:51:31;73.35;;;30.88;;
23718;SDS011;43322;52.230;5.702;2022-12-18T00:53:58;75.07;;;30.42;;
23718;SDS011;43322;52.230;5.702;2022-12-18T00:56:26;79.13;;;32.00;;
23718;SDS011;43322;52.230;5.702;2022-12-18T00:58:53;68.90;;;29.30;;
23718;SDS011;43322;52.230;5.702;2022-12-18T01:01:19;69.82;;;30.58;;
23718;SDS011;43322;52.230;5.702;2022-12-18T01:03:47;70.80;;;30.42;;
23718;SDS011;43322;52.230;5.702;2022-12-18T01:06:14;78.05;;;30.42;;
23718;SDS011;43322;52.230;5.702;2022-12-18T01:08:41;67.40;;;27.88;;
23718;SDS011;43322;52.230;5.702;2022-12-18T01:11:09;77.85;;;31.40;;
23718;SDS011;43322;52.230;5.702;2022-12-18T01:13:38;71.65;;;29.63;;
23718;SDS011;43322;52.230;5.702;2022-12-18T01:16:05;71.38;;;29.13;;
23718;SDS011;43322;52.230;5.702;2022-12-18T01:18:33;69.68;;;30.08;;
23718;SDS011;43322;52.230;5.702;2022-12-18T01:21:00;68.47;;;29.63;;
23718;SDS011;43322;52.230;5.702;2022-12-18T01:23:31;71.32;;;31.05;;
23718;SDS011;43322;52.230;5.702;2022-12-18T01:25:58;69.43;;;30.15;;
23718;SDS011;43322;52.230;5.702;2022-12-18T01:28:29;66.25;;;29.35;;
23718;SDS011;43322;52.230;5.702;2022-12-18T01:30:57;73.55;;;30.42;;
23718;SDS011;43322;52.230;5.702;2022-12-18T01:33:34;72.18;;;30.15;;
23718;SDS011;43322;52.230;5.702;2022-12-18T01:36:01;62.25;;;28.95;;
23718;SDS011;43322;52.230;5.702;2022-12-18T01:38:28;65.78;;;28.50;;
23718;SDS011;43322;52.230;5.702;2022-12-18T01:40:56;73.60;;;28.70;;
23718;SDS011;43322;52.230;5.702;2022-12-18T01:46:17;67.38;;;29.40;;
23718;SDS011;43322;52.230;5.702;2022-12-18T01:48:45;69.22;;;27.73;;
23718;SDS011;43322;52.230;5.702;2022-12-18T01:51:14;65.93;;;29.50;;
23718;SDS011;43322;52.230;5.702;2022-12-18T01:53:41;65.50;;;27.65;;
23718;SDS011;43322;52.230;5.702;2022-12-18T01:56:12;59.92;;;27.55;;
23718;SDS011;43322;52.230;5.702;2022-12-18T01:58:41;62.95;;;27.50;;
23718;SDS011;43322;52.230;5.702;2022-12-18T02:01:13;64.13;;;29.65;;
23718;SDS011;43322;52.230;5.702;2022-12-18T02:03:42;61.63;;;28.70;;
23718;SDS011;43322;52.230;5.702;2022-12-18T02:06:12;62.97;;;27.42;;
23718;SDS011;43322;52.230;5.702;2022-12-18T02:08:45;68.80;;;29.30;;
23718;SDS011;43322;52.230;5.702;2022-12-18T02:11:22;56.80;;;27.25;;
23718;SDS011;43322;52.230;5.702;2022-12-18T02:13:56;57.90;;;28.02;;
23718;SDS011;43322;52.230;5.702;2022-12-18T02:16:32;58.65;;;27.40;;
23718;SDS011;43322;52.230;5.702;2022-12-18T02:19:09;57.17;;;25.85;;
23718;SDS011;43322;52.230;5.702;2022-12-18T02:21:48;58.00;;;27.38;;
23718;SDS011;43322;52.230;5.702;2022-12-18T02:24:24;54.17;;;25.38;;
23718;SDS011;43322;52.230;5.702;2022-12-18T02:27:00;59.97;;;26.17;;
23718;SDS011;43322;52.230;5.702;2022-12-18T02:29:29;54.95;;;27.25;;
23718;SDS011;43322;52.230;5.702;2022-12-18T02:32:00;57.65;;;26.08;;
23718;SDS011;43322;52.230;5.702;2022-12-18T02:34:29;57.63;;;26.00;;
23718;SDS011;43322;52.230;5.702;2022-12-18T02:36:58;64.10;;;28.23;;
23718;SDS011;43322;52.230;5.702;2022-12-18T02:39:27;55.33;;;25.00;;
23718;SDS011;43322;52.230;5.702;2022-12-18T02:41:56;58.35;;;26.60;;
23718;SDS011;43322;52.230;5.702;2022-12-18T02:44:25;59.92;;;26.45;;
23718;SDS011;43322;52.230;5.702;2022-12-18T02:46:53;49.08;;;24.63;;
23718;SDS011;43322;52.230;5.702;2022-12-18T02:49:22;52.35;;;25.08;;
23718;SDS011;43322;52.230;5.702;2022-12-18T02:52:01;58.90;;;26.95;;
23718;SDS011;43322;52.230;5.702;2022-12-18T02:54:38;51.70;;;26.13;;
23718;SDS011;43322;52.230;5.702;2022-12-18T02:57:17;52.97;;;25.52;;
23718;SDS011;43322;52.230;5.702;2022-12-18T02:59:53;56.20;;;25.50;;
23718;SDS011;43322;52.230;5.702;2022-12-18T03:02:25;54.33;;;25.88;;
23718;SDS011;43322;52.230;5.702;2022-12-18T03:04:57;50.10;;;23.38;;
23718;SDS011;43322;52.230;5.702;2022-12-18T03:07:33;47.80;;;24.40;;
23718;SDS011;43322;52.230;5.702;2022-12-18T03:10:03;49.03;;;23.80;;
23718;SDS011;43322;52.230;5.702;2022-12-18T03:12:34;46.25;;;23.42;;
23718;SDS011;43322;52.230;5.702;2022-12-18T03:15:06;56.03;;;25.75;;
23718;SDS011;43322;52.230;5.702;2022-12-18T03:17:36;55.00;;;25.38;;
23718;SDS011;43322;52.230;5.702;2022-12-18T03:20:08;49.25;;;24.52;;
23718;SDS011;43322;52.230;5.702;2022-12-18T03:22:38;51.70;;;24.35;;
23718;SDS011;43322;52.230;5.702;2022-12-18T03:25:09;39.55;;;21.63;;
23718;SDS011;43322;52.230;5.702;2022-12-18T03:27:40;45.42;;;22.23;;
23718;SDS011;43322;52.230;5.702;2022-12-18T03:30:13;45.70;;;22.73;;
23718;SDS011;43322;52.230;5.702;2022-12-18T03:32:42;42.75;;;22.98;;
23718;SDS011;43322;52.230;5.702;2022-12-18T03:35:14;44.55;;;22.75;;
23718;SDS011;43322;52.230;5.702;2022-12-18T03:37:46;41.83;;;23.17;;
23718;SDS011;43322;52.230;5.702;2022-12-18T03:40:13;43.38;;;21.88;;
23718;SDS011;43322;52.230;5.702;2022-12-18T03:42:42;44.42;;;22.58;;
23718;SDS011;43322;52.230;5.702;2022-12-18T03:45:18;46.75;;;22.73;;
23718;SDS011;43322;52.230;5.702;2022-12-18T03:47:51;45.75;;;22.40;;
23718;SDS011;43322;52.230;5.702;2022-12-18T03:50:25;43.08;;;20.80;;
23718;SDS011;43322;52.230;5.702;2022-12-18T03:53:01;47.55;;;22.75;;
23718;SDS011;43322;52.230;5.702;2022-12-18T03:55:34;39.58;;;20.45;;
23718;SDS011;43322;52.230;5.702;2022-12-18T03:58:02;39.75;;;21.27;;
23718;SDS011;43322;52.230;5.702;2022-12-18T04:00:32;45.15;;;22.27;;
23718;SDS011;43322;52.230;5.702;2022-12-18T04:03:00;44.70;;;21.58;;
23718;SDS011;43322;52.230;5.702;2022-12-18T04:05:29;36.53;;;19.45;;
23718;SDS011;43322;52.230;5.702;2022-12-18T04:07:58;40.70;;;21.05;;
23718;SDS011;43322;52.230;5.702;2022-12-18T04:10:26;43.17;;;21.17;;
23718;SDS011;43322;52.230;5.702;2022-12-18T04:12:55;46.65;;;21.83;;
23718;SDS011;43322;52.230;5.702;2022-12-18T04:15:22;39.40;;;20.40;;
23718;SDS011;43322;52.230;5.702;2022-12-18T04:17:50;39.15;;;20.83;;
23718;SDS011;43322;52.230;5.702;2022-12-18T04:20:17;39.58;;;21.13;;
23718;SDS011;43322;52.230;5.702;2022-12-18T04:22:44;41.08;;;20.10;;
23718;SDS011;43322;52.230;5.702;2022-12-18T04:25:11;39.72;;;19.50;;
23718;SDS011;43322;52.230;5.702;2022-12-18T04:27:38;35.30;;;18.90;;
23718;SDS011;43322;52.230;5.702;2022-12-18T04:30:05;35.40;;;18.92;;
23718;SDS011;43322;52.230;5.702;2022-12-18T04:32:33;38.17;;;19.20;;
23718;SDS011;43322;52.230;5.702;2022-12-18T04:35:01;38.70;;;17.98;;
23718;SDS011;43322;52.230;5.702;2022-12-18T04:37:29;31.35;;;16.58;;
23718;SDS011;43322;52.230;5.702;2022-12-18T04:39:55;39.38;;;18.35;;
23718;SDS011;43322;52.230;5.702;2022-12-18T04:42:22;33.92;;;17.45;;
23718;SDS011;43322;52.230;5.702;2022-12-18T04:44:49;37.60;;;16.88;;
23718;SDS011;43322;52.230;5.702;2022-12-18T04:47:15;30.38;;;16.30;;
23718;SDS011;43322;52.230;5.702;2022-12-18T04:49:42;32.47;;;17.63;;
23718;SDS011;43322;52.230;5.702;2022-12-18T04:52:10;33.95;;;17.02;;
23718;SDS011;43322;52.230;5.702;2022-12-18T04:54:37;34.25;;;17.20;;
23718;SDS011;43322;52.230;5.702;2022-12-18T04:57:03;33.38;;;17.08;;
23718;SDS011;43322;52.230;5.702;2022-12-18T04:59:30;31.25;;;16.42;;
23718;SDS011;43322;52.230;5.702;2022-12-18T05:01:57;31.50;;;16.35;;
23718;SDS011;43322;52.230;5.702;2022-12-18T05:04:24;32.35;;;16.92;;
23718;SDS011;43322;52.230;5.702;2022-12-18T05:06:51;27.50;;;15.75;;
23718;SDS011;43322;52.230;5.702;2022-12-18T05:09:19;26.10;;;14.85;;
23718;SDS011;43322;52.230;5.702;2022-12-18T05:11:45;27.90;;;15.43;;
23718;SDS011;43322;52.230;5.702;2022-12-18T05:14:12;32.92;;;16.10;;
23718;SDS011;43322;52.230;5.702;2022-12-18T05:16:39;26.95;;;15.77;;
23718;SDS011;43322;52.230;5.702;2022-12-18T05:19:06;28.08;;;14.57;;
23718;SDS011;43322;52.230;5.702;2022-12-18T05:21:32;28.60;;;15.77;;
23718;SDS011;43322;52.230;5.702;2022-12-18T05:23:59;29.05;;;15.10;;
23718;SDS011;43322;52.230;5.702;2022-12-18T05:26:27;31.65;;;15.27;;
23718;SDS011;43322;52.230;5.702;2022-12-18T05:28:54;25.08;;;14.23;;
23718;SDS011;43322;52.230;5.702;2022-12-18T05:31:23;25.25;;;14.88;;
23718;SDS011;43322;52.230;5.702;2022-12-18T05:33:50;26.30;;;15.70;;
23718;SDS011;43322;52.230;5.702;2022-12-18T05:36:16;28.50;;;15.13;;
23718;SDS011;43322;52.230;5.702;2022-12-18T05:38:43;24.05;;;14.30;;
23718;SDS011;43322;52.230;5.702;2022-12-18T05:41:10;28.15;;;14.60;;
23718;SDS011;43322;52.230;5.702;2022-12-18T05:43:39;23.58;;;14.90;;
23718;SDS011;43322;52.230;5.702;2022-12-18T05:46:06;27.98;;;15.30;;
23718;SDS011;43322;52.230;5.702;2022-12-18T05:48:34;29.45;;;14.77;;
23718;SDS011;43322;52.230;5.702;2022-12-18T05:51:04;26.98;;;14.23;;
23718;SDS011;43322;52.230;5.702;2022-12-18T05:53:32;25.67;;;15.95;;
23718;SDS011;43322;52.230;5.702;2022-12-18T05:56:00;29.02;;;14.65;;
23718;SDS011;43322;52.230;5.702;2022-12-18T05:58:27;28.55;;;14.63;;
23718;SDS011;43322;52.230;5.702;2022-12-18T06:00:55;24.02;;;14.70;;
23718;SDS011;43322;52.230;5.702;2022-12-18T06:03:22;25.45;;;14.48;;
23718;SDS011;43322;52.230;5.702;2022-12-18T06:05:49;27.30;;;15.02;;
23718;SDS011;43322;52.230;5.702;2022-12-18T06:08:15;23.98;;;15.32;;
23718;SDS011;43322;52.230;5.702;2022-12-18T06:10:45;26.27;;;14.85;;
23718;SDS011;43322;52.230;5.702;2022-12-18T06:13:16;26.35;;;13.95;;
23718;SDS011;43322;52.230;5.702;2022-12-18T06:15:43;22.75;;;14.20;;
23718;SDS011;43322;52.230;5.702;2022-12-18T06:18:11;28.10;;;14.88;;
23718;SDS011;43322;52.230;5.702;2022-12-18T06:20:37;24.92;;;14.85;;
23718;SDS011;43322;52.230;5.702;2022-12-18T06:23:04;28.90;;;14.70;;
23718;SDS011;43322;52.230;5.702;2022-12-18T06:25:31;25.27;;;14.57;;
23718;SDS011;43322;52.230;5.702;2022-12-18T06:27:58;26.13;;;15.13;;
23718;SDS011;43322;52.230;5.702;2022-12-18T06:30:24;24.27;;;14.55;;
23718;SDS011;43322;52.230;5.702;2022-12-18T06:32:51;22.40;;;15.05;;
23718;SDS011;43322;52.230;5.702;2022-12-18T06:35:19;25.33;;;14.43;;
23718;SDS011;43322;52.230;5.702;2022-12-18T06:37:46;24.63;;;15.25;;
23718;SDS011;43322;52.230;5.702;2022-12-18T06:40:13;26.80;;;14.35;;
23718;SDS011;43322;52.230;5.702;2022-12-18T06:42:39;25.70;;;14.98;;
23718;SDS011;43322;52.230;5.702;2022-12-18T06:45:07;28.17;;;15.35;;
23718;SDS011;43322;52.230;5.702;2022-12-18T06:47:34;25.45;;;14.93;;
23718;SDS011;43322;52.230;5.702;2022-12-18T06:50:01;24.55;;;14.30;;
23718;SDS011;43322;52.230;5.702;2022-12-18T06:52:29;22.77;;;14.95;;
23718;SDS011;43322;52.230;5.702;2022-12-18T06:54:57;23.92;;;15.40;;
23718;SDS011;43322;52.230;5.702;2022-12-18T06:57:24;27.02;;;15.85;;
23718;SDS011;43322;52.230;5.702;2022-12-18T06:59:51;24.20;;;15.10;;
23718;SDS011;43322;52.230;5.702;2022-12-18T07:02:17;25.30;;;15.00;;
23718;SDS011;43322;52.230;5.702;2022-12-18T07:04:44;26.80;;;14.95;;
23718;SDS011;43322;52.230;5.702;2022-12-18T07:07:11;25.20;;;15.43;;
23718;SDS011;43322;52.230;5.702;2022-12-18T07:09:39;25.85;;;15.00;;
23718;SDS011;43322;52.230;5.702;2022-12-18T07:12:05;25.67;;;15.13;;
23718;SDS011;43322;52.230;5.702;2022-12-18T07:14:33;24.38;;;15.45;;
23718;SDS011;43322;52.230;5.702;2022-12-18T07:16:59;28.08;;;15.57;;
23718;SDS011;43322;52.230;5.702;2022-12-18T07:19:26;30.98;;;15.27;;
23718;SDS011;43322;52.230;5.702;2022-12-18T07:21:53;27.23;;;15.32;;
23718;SDS011;43322;52.230;5.702;2022-12-18T07:24:19;29.90;;;16.65;;
23718;SDS011;43322;52.230;5.702;2022-12-18T07:26:48;27.30;;;16.02;;
23718;SDS011;43322;52.230;5.702;2022-12-18T07:29:14;25.80;;;14.95;;
23718;SDS011;43322;52.230;5.702;2022-12-18T07:31:41;26.55;;;15.02;;
23718;SDS011;43322;52.230;5.702;2022-12-18T07:34:09;28.02;;;14.93;;
23718;SDS011;43322;52.230;5.702;2022-12-18T07:36:36;28.20;;;16.38;;
23718;SDS011;43322;52.230;5.702;2022-12-18T07:39:03;24.38;;;15.25;;
23718;SDS011;43322;52.230;5.702;2022-12-18T07:41:30;24.45;;;14.40;;
23718;SDS011;43322;52.230;5.702;2022-12-18T07:43:58;24.98;;;15.20;;
23718;SDS011;43322;52.230;5.702;2022-12-18T07:46:25;27.50;;;16.20;;
23718;SDS011;43322;52.230;5.702;2022-12-18T07:48:51;26.15;;;15.00;;
23718;SDS011;43322;52.230;5.702;2022-12-18T07:51:18;26.33;;;15.40;;
23718;SDS011;43322;52.230;5.702;2022-12-18T07:53:45;24.48;;;15.25;;
23718;SDS011;43322;52.230;5.702;2022-12-18T07:56:12;24.83;;;14.85;;
23718;SDS011;43322;52.230;5.702;2022-12-18T07:58:39;27.83;;;15.05;;
23718;SDS011;43322;52.230;5.702;2022-12-18T08:01:08;24.75;;;14.60;;
23718;SDS011;43322;52.230;5.702;2022-12-18T08:03:36;28.67;;;14.45;;
23718;SDS011;43322;52.230;5.702;2022-12-18T08:06:04;23.25;;;13.90;;
23718;SDS011;43322;52.230;5.702;2022-12-18T08:08:32;23.25;;;13.93;;
23718;SDS011;43322;52.230;5.702;2022-12-18T08:11:00;20.20;;;13.85;;
23718;SDS011;43322;52.230;5.702;2022-12-18T08:13:27;24.40;;;14.57;;
23718;SDS011;43322;52.230;5.702;2022-12-18T08:15:57;22.02;;;14.27;;
23718;SDS011;43322;52.230;5.702;2022-12-18T08:18:26;22.63;;;13.52;;
23718;SDS011;43322;52.230;5.702;2022-12-18T08:20:53;25.08;;;13.82;;
23718;SDS011;43322;52.230;5.702;2022-12-18T08:23:21;21.77;;;13.80;;
23718;SDS011;43322;52.230;5.702;2022-12-18T08:25:48;21.17;;;12.82;;
23718;SDS011;43322;52.230;5.702;2022-12-18T08:28:16;20.42;;;12.63;;
23718;SDS011;43322;52.230;5.702;2022-12-18T08:30:43;20.70;;;14.05;;
23718;SDS011;43322;52.230;5.702;2022-12-18T08:33:09;21.27;;;13.15;;
23718;SDS011;43322;52.230;5.702;2022-12-18T08:35:37;21.30;;;13.75;;
23718;SDS011;43322;52.230;5.702;2022-12-18T08:38:04;21.13;;;13.45;;
23718;SDS011;43322;52.230;5.702;2022-12-18T08:40:31;21.00;;;13.93;;
23718;SDS011;43322;52.230;5.702;2022-12-18T08:42:58;22.92;;;13.45;;
23718;SDS011;43322;52.230;5.702;2022-12-18T08:45:42;17.95;;;11.52;;
23718;SDS011;43322;52.230;5.702;2022-12-18T08:48:09;27.67;;;13.07;;
23718;SDS011;43322;52.230;5.702;2022-12-18T08:50:35;22.35;;;12.48;;
23718;SDS011;43322;52.230;5.702;2022-12-18T08:53:03;24.48;;;12.35;;
23718;SDS011;43322;52.230;5.702;2022-12-18T08:55:30;18.80;;;11.52;;
23718;SDS011;43322;52.230;5.702;2022-12-18T08:57:57;20.02;;;12.43;;
23718;SDS011;43322;52.230;5.702;2022-12-18T09:00:23;19.13;;;11.98;;
23718;SDS011;43322;52.230;5.702;2022-12-18T09:02:50;17.90;;;12.00;;
23718;SDS011;43322;52.230;5.702;2022-12-18T09:05:17;21.27;;;12.25;;
23718;SDS011;43322;52.230;5.702;2022-12-18T09:07:45;20.70;;;12.68;;
23718;SDS011;43322;52.230;5.702;2022-12-18T09:10:11;24.52;;;13.00;;
23718;SDS011;43322;52.230;5.702;2022-12-18T09:12:38;18.60;;;12.05;;
23718;SDS011;43322;52.230;5.702;2022-12-18T09:15:05;19.02;;;11.65;;
23718;SDS011;43322;52.230;5.702;2022-12-18T09:17:32;22.02;;;12.23;;
23718;SDS011;43322;52.230;5.702;2022-12-18T09:19:59;21.38;;;12.60;;
23718;SDS011;43322;52.230;5.702;2022-12-18T09:22:25;18.70;;;12.00;;
23718;SDS011;43322;52.230;5.702;2022-12-18T09:24:53;20.20;;;12.57;;
23718;SDS011;43322;52.230;5.702;2022-12-18T09:27:20;20.00;;;12.18;;
23718;SDS011;43322;52.230;5.702;2022-12-18T09:29:47;18.95;;;11.82;;
23718;SDS011;43322;52.230;5.702;2022-12-18T09:32:13;20.08;;;12.25;;
23718;SDS011;43322;52.230;5.702;2022-12-18T09:34:40;17.95;;;11.63;;
23718;SDS011;43322;52.230;5.702;2022-12-18T09:37:07;20.40;;;12.07;;
23718;SDS011;43322;52.230;5.702;2022-12-18T09:39:33;19.25;;;10.68;;
23718;SDS011;43322;52.230;5.702;2022-12-18T09:42:05;17.50;;;11.30;;
23718;SDS011;43322;52.230;5.702;2022-12-18T09:44:32;15.15;;;11.10;;
23718;SDS011;43322;52.230;5.702;2022-12-18T09:47:05;18.20;;;11.77;;
23718;SDS011;43322;52.230;5.702;2022-12-18T09:49:37;17.38;;;11.60;;
23718;SDS011;43322;52.230;5.702;2022-12-18T09:52:09;17.50;;;11.20;;
23718;SDS011;43322;52.230;5.702;2022-12-18T09:54:40;15.95;;;10.73;;
23718;SDS011;43322;52.230;5.702;2022-12-18T09:57:12;18.67;;;11.05;;
23718;SDS011;43322;52.230;5.702;2022-12-18T09:59:41;19.73;;;11.20;;
23718;SDS011;43322;52.230;5.702;2022-12-18T10:02:14;16.80;;;11.63;;
23718;SDS011;43322;52.230;5.702;2022-12-18T10:04:42;19.10;;;11.38;;
23718;SDS011;43322;52.230;5.702;2022-12-18T10:07:10;20.52;;;11.48;;
23718;SDS011;43322;52.230;5.702;2022-12-18T10:09:46;18.73;;;10.45;;
23718;SDS011;43322;52.230;5.702;2022-12-18T10:12:20;17.48;;;11.43;;
23718;SDS011;43322;52.230;5.702;2022-12-18T10:14:53;17.65;;;11.45;;
23718;SDS011;43322;52.230;5.702;2022-12-18T10:17:29;20.00;;;11.45;;
23718;SDS011;43322;52.230;5.702;2022-12-18T10:20:01;21.70;;;11.40;;
23718;SDS011;43322;52.230;5.702;2022-12-18T10:22:39;19.05;;;11.88;;
23718;SDS011;43322;52.230;5.702;2022-12-18T10:25:17;17.75;;;11.60;;
23718;SDS011;43322;52.230;5.702;2022-12-18T10:27:49;15.57;;;10.48;;
23718;SDS011;43322;52.230;5.702;2022-12-18T10:30:19;13.48;;;9.80;;
23718;SDS011;43322;52.230;5.702;2022-12-18T10:32:47;16.25;;;10.48;;
23718;SDS011;43322;52.230;5.702;2022-12-18T10:35:16;16.45;;;10.40;;
23718;SDS011;43322;52.230;5.702;2022-12-18T10:38:01;15.88;;;9.98;;
23718;SDS011;43322;52.230;5.702;2022-12-18T10:40:31;19.83;;;10.20;;
23718;SDS011;43322;52.230;5.702;2022-12-18T10:43:04;16.50;;;10.50;;
23718;SDS011;43322;52.230;5.702;2022-12-18T10:45:32;13.13;;;10.00;;
23718;SDS011;43322;52.230;5.702;2022-12-18T10:48:00;15.15;;;9.93;;
23718;SDS011;43322;52.230;5.702;2022-12-18T10:50:28;15.82;;;10.60;;
23718;SDS011;43322;52.230;5.702;2022-12-18T10:52:58;18.13;;;10.90;;
23718;SDS011;43322;52.230;5.702;2022-12-18T10:55:26;17.75;;;9.68;;
23718;SDS011;43322;52.230;5.702;2022-12-18T10:58:04;15.70;;;10.15;;
23718;SDS011;43322;52.230;5.702;2022-12-18T11:00:41;13.32;;;9.55;;
23718;SDS011;43322;52.230;5.702;2022-12-18T11:03:16;16.10;;;10.32;;
23718;SDS011;43322;52.230;5.702;2022-12-18T11:06:03;14.38;;;9.93;;
23718;SDS011;43322;52.230;5.702;2022-12-18T11:08:32;16.42;;;9.93;;
23718;SDS011;43322;52.230;5.702;2022-12-18T11:10:59;16.15;;;9.75;;
23718;SDS011;43322;52.230;5.702;2022-12-18T11:13:27;13.52;;;9.98;;
23718;SDS011;43322;52.230;5.702;2022-12-18T11:15:56;15.85;;;9.82;;
23718;SDS011;43322;52.230;5.702;2022-12-18T11:18:25;14.00;;;9.63;;
23718;SDS011;43322;52.230;5.702;2022-12-18T11:20:53;14.50;;;9.85;;
23718;SDS011;43322;52.230;5.702;2022-12-18T11:23:23;12.70;;;9.45;;
23718;SDS011;43322;52.230;5.702;2022-12-18T11:25:51;16.25;;;9.55;;
23718;SDS011;43322;52.230;5.702;2022-12-18T11:28:38;13.23;;;9.30;;
23718;SDS011;43322;52.230;5.702;2022-12-18T11:31:12;14.07;;;10.18;;
23718;SDS011;43322;52.230;5.702;2022-12-18T11:33:44;16.10;;;9.85;;
23718;SDS011;43322;52.230;5.702;2022-12-18T11:36:15;14.75;;;9.98;;
23718;SDS011;43322;52.230;5.702;2022-12-18T11:38:43;13.50;;;10.07;;
23718;SDS011;43322;52.230;5.702;2022-12-18T11:41:13;13.27;;;9.55;;
23718;SDS011;43322;52.230;5.702;2022-12-18T11:43:50;15.45;;;9.80;;
23718;SDS011;43322;52.230;5.702;2022-12-18T11:46:23;14.65;;;9.85;;
23718;SDS011;43322;52.230;5.702;2022-12-18T11:48:58;15.25;;;9.85;;
23718;SDS011;43322;52.230;5.702;2022-12-18T11:51:37;16.35;;;10.18;;
23718;SDS011;43322;52.230;5.702;2022-12-18T11:54:10;12.50;;;9.23;;
23718;SDS011;43322;52.230;5.702;2022-12-18T11:56:39;15.88;;;10.45;;
23718;SDS011;43322;52.230;5.702;2022-12-18T11:59:15;17.98;;;10.07;;
23718;SDS011;43322;52.230;5.702;2022-12-18T12:01:52;17.25;;;10.27;;
23718;SDS011;43322;52.230;5.702;2022-12-18T12:04:27;14.20;;;10.10;;
23718;SDS011;43322;52.230;5.702;2022-12-18T12:07:07;14.23;;;9.35;;
23718;SDS011;43322;52.230;5.702;2022-12-18T12:09:48;14.05;;;10.13;;
23718;SDS011;43322;52.230;5.702;2022-12-18T12:12:25;13.43;;;9.52;;
23718;SDS011;43322;52.230;5.702;2022-12-18T12:15:13;13.93;;;10.02;;
23718;SDS011;43322;52.230;5.702;2022-12-18T12:17:49;14.60;;;10.00;;
23718;SDS011;43322;52.230;5.702;2022-12-18T12:20:22;13.18;;;9.77;;
23718;SDS011;43322;52.230;5.702;2022-12-18T12:22:58;14.80;;;10.63;;
23718;SDS011;43322;52.230;5.702;2022-12-18T12:25:33;16.17;;;9.70;;
23718;SDS011;43322;52.230;5.702;2022-12-18T12:28:11;15.13;;;9.57;;
23718;SDS011;43322;52.230;5.702;2022-12-18T12:30:50;14.82;;;9.55;;
23718;SDS011;43322;52.230;5.702;2022-12-18T12:33:30;12.98;;;10.23;;
23718;SDS011;43322;52.230;5.702;2022-12-18T12:36:04;14.88;;;10.07;;
23718;SDS011;43322;52.230;5.702;2022-12-18T12:38:41;14.30;;;9.65;;
23718;SDS011;43322;52.230;5.702;2022-12-18T12:41:12;12.98;;;9.77;;
23718;SDS011;43322;52.230;5.702;2022-12-18T12:43:57;13.35;;;9.70;;
23718;SDS011;43322;52.230;5.702;2022-12-18T12:46:28;13.32;;;9.73;;
23718;SDS011;43322;52.230;5.702;2022-12-18T12:48:59;13.27;;;9.95;;
23718;SDS011;43322;52.230;5.702;2022-12-18T12:51:31;14.98;;;9.95;;
23718;SDS011;43322;52.230;5.702;2022-12-18T12:54:00;12.07;;;9.57;;
23718;SDS011;43322;52.230;5.702;2022-12-18T12:56:32;13.95;;;10.25;;
23718;SDS011;43322;52.230;5.702;2022-12-18T12:59:08;13.30;;;10.10;;
23718;SDS011;43322;52.230;5.702;2022-12-18T13:01:41;16.33;;;10.18;;
23718;SDS011;43322;52.230;5.702;2022-12-18T13:04:21;14.15;;;9.90;;
23718;SDS011;43322;52.230;5.702;2022-12-18T13:06:53;14.68;;;10.00;;
23718;SDS011;43322;52.230;5.702;2022-12-18T13:09:29;15.18;;;9.70;;
23718;SDS011;43322;52.230;5.702;2022-12-18T13:12:00;13.55;;;10.30;;
23718;SDS011;43322;52.230;5.702;2022-12-18T13:14:46;16.00;;;10.00;;
23718;SDS011;43322;52.230;5.702;2022-12-18T13:17:21;16.85;;;10.52;;
23718;SDS011;43322;52.230;5.702;2022-12-18T13:22:39;13.90;;;9.88;;
23718;SDS011;43322;52.230;5.702;2022-12-18T13:27:57;15.30;;;10.27;;
23718;SDS011;43322;52.230;5.702;2022-12-18T13:30:47;13.75;;;10.10;;
23718;SDS011;43322;52.230;5.702;2022-12-18T13:33:39;15.35;;;10.38;;
23718;SDS011;43322;52.230;5.702;2022-12-18T13:36:15;14.90;;;9.82;;
23718;SDS011;43322;52.230;5.702;2022-12-18T13:41:49;14.70;;;10.07;;
23718;SDS011;43322;52.230;5.702;2022-12-18T13:44:23;14.38;;;10.10;;
23718;SDS011;43322;52.230;5.702;2022-12-18T13:46:55;13.50;;;9.93;;
23718;SDS011;43322;52.230;5.702;2022-12-18T13:49:25;15.25;;;10.00;;
23718;SDS011;43322;52.230;5.702;2022-12-18T13:51:56;14.02;;;10.13;;
23718;SDS011;43322;52.230;5.702;2022-12-18T13:54:25;13.13;;;9.75;;
23718;SDS011;43322;52.230;5.702;2022-12-18T13:56:55;18.10;;;10.20;;
23718;SDS011;43322;52.230;5.702;2022-12-18T13:59:23;14.07;;;9.73;;
23718;SDS011;43322;52.230;5.702;2022-12-18T14:01:52;14.25;;;10.07;;
23718;SDS011;43322;52.230;5.702;2022-12-18T14:04:34;13.43;;;9.85;;
23718;SDS011;43322;52.230;5.702;2022-12-18T14:07:03;16.85;;;10.07;;
23718;SDS011;43322;52.230;5.702;2022-12-18T14:09:34;15.68;;;9.90;;
23718;SDS011;43322;52.230;5.702;2022-12-18T14:12:03;16.33;;;10.07;;
23718;SDS011;43322;52.230;5.702;2022-12-18T14:14:48;14.00;;;9.90;;
23718;SDS011;43322;52.230;5.702;2022-12-18T14:17:17;13.85;;;9.88;;
23718;SDS011;43322;52.230;5.702;2022-12-18T14:19:46;13.95;;;10.20;;
23718;SDS011;43322;52.230;5.702;2022-12-18T14:22:16;16.70;;;10.32;;
23718;SDS011;43322;52.230;5.702;2022-12-18T14:24:45;13.93;;;9.77;;
23718;SDS011;43322;52.230;5.702;2022-12-18T14:27:18;12.48;;;9.52;;
23718;SDS011;43322;52.230;5.702;2022-12-18T14:29:47;14.02;;;10.50;;
23718;SDS011;43322;52.230;5.702;2022-12-18T14:32:15;15.50;;;10.13;;
23718;SDS011;43322;52.230;5.702;2022-12-18T14:34:43;14.65;;;9.63;;
23718;SDS011;43322;52.230;5.702;2022-12-18T14:37:12;15.68;;;10.63;;
23718;SDS011;43322;52.230;5.702;2022-12-18T14:39:40;14.30;;;10.00;;
23718;SDS011;43322;52.230;5.702;2022-12-18T14:42:09;17.48;;;10.85;;
23718;SDS011;43322;52.230;5.702;2022-12-18T14:44:37;19.38;;;10.75;;
23718;SDS011;43322;52.230;5.702;2022-12-18T14:47:04;15.50;;;9.80;;
23718;SDS011;43322;52.230;5.702;2022-12-18T14:49:31;12.82;;;9.80;;
23718;SDS011;43322;52.230;5.702;2022-12-18T14:52:00;14.15;;;9.73;;